Terminal Aerodrome Forecast
Issued by NWS

Home | Current Version | Previous Version | Text Only | Print | Product List | Glossary On
Versions: 1 2 3 4 5 6 7 8 9 10 11 12 13
000
FTUS43 KBIS 191100
TAFMOT
TAF
KMOT 191133Z 1912/2012 26011KT P6SM SCT150
     FM191800 28017G26KT P6SM BKN050
     FM200200 31010KT P6SM BKN040=

USA.gov is the U.S. government's official web portal to all federal, state and local government web resources and services.